Flugplatz Linkenheim

Für EDRI sind keine METAR/TAF Berichte vorhanden.
Es werden die Flugwettermeldungen vom Flugplatz Mannheim-City in 37 km Entfernung angezeigt.

Bericht für EDFM

vom 25.10. um 17:20 UTC

Wind 2 kt aus 200°

Sichtweite 10 km oder mehr

gute Sicht, keine Wolken < 5000 ft, keine CB, keine Wettererscheinungen (CAVOK)

Temperatur 10.0°C

Taupunkt 7.0°C

Luftfeuchtigkeit 82%

Luftdruck 1019 hPa

EDFM 251720Z 20002KT CAVOK 10/07 Q1019

Prognose für EDFM

vom 25.10. um 17:00 UTC

Zwischen 18:00 UTC und 21:00 UTC

Wind 3 kt aus 180°

Sichtweite 10 km oder mehr

keine signifikanten Wettererscheinungen

keine Wolken

TAF EDFM 251700Z 2518/2521 18003KT CAVOK
Impressum